createdAt,value
2019-02-05T00:00:04.065Z,105.93
2019-02-05T00:02:36.170Z,108.93
2019-02-05T00:05:07.165Z,104.43
2019-02-05T00:07:37.822Z,107.77
2019-02-05T00:10:08.600Z,107.03
2019-02-05T00:12:39.194Z,109.67
2019-02-05T00:15:09.759Z,108.93
2019-02-05T00:17:40.297Z,107.20
2019-02-05T00:20:11.112Z,105.80
2019-02-05T00:22:42.750Z,107.87
2019-02-05T00:25:13.393Z,105.73
2019-02-05T00:27:44.225Z,106.93
2019-02-05T00:30:15.543Z,106.23
2019-02-05T00:32:46.910Z,105.87
2019-02-05T00:35:17.473Z,105.43
2019-02-05T00:37:48.480Z,105.53
2019-02-05T00:40:19.294Z,107.53
2019-02-05T00:42:50.149Z,107.03
2019-02-05T00:45:21.031Z,105.83
2019-02-05T00:47:52.602Z,105.83
2019-02-05T00:50:23.081Z,109.20
2019-02-05T00:52:53.594Z,108.47
2019-02-05T00:55:24.097Z,107.93
2019-02-05T00:57:54.727Z,107.50
2019-02-05T01:00:27.474Z,105.27
2019-02-05T01:02:58.336Z,106.90
2019-02-05T01:05:28.969Z,105.97
2019-02-05T01:07:59.552Z,106.20
2019-02-05T01:10:30.121Z,105.07
2019-02-05T01:13:00.968Z,107.47
2019-02-05T01:15:32.536Z,106.63
2019-02-05T01:18:03.242Z,105.97
2019-02-05T01:20:33.885Z,105.93
2019-02-05T01:23:04.777Z,104.67
2019-02-05T01:25:36.708Z,105.10
2019-02-05T01:28:07.181Z,105.57
2019-02-05T01:30:37.669Z,106.33
2019-02-05T01:33:08.194Z,106.07
2019-02-05T01:35:38.834Z,105.50
2019-02-05T01:38:09.714Z,105.03
2019-02-05T01:40:41.829Z,105.13
2019-02-05T01:43:12.382Z,105.00
2019-02-05T01:45:43.126Z,107.73
2019-02-05T01:48:14.562Z,105.13
2019-02-05T01:50:45.572Z,106.27
2019-02-05T01:53:16.116Z,105.50
2019-02-05T01:55:46.914Z,105.10
2019-02-05T01:58:17.311Z,105.03
2019-02-05T02:00:47.958Z,105.80
2019-02-05T02:03:19.045Z,107.37
2019-02-05T02:05:49.865Z,105.40
2019-02-05T02:08:20.958Z,103.13
2019-02-05T02:10:51.717Z,104.07
2019-02-05T02:13:22.201Z,104.30
2019-02-05T02:15:52.779Z,104.50
2019-02-05T02:18:23.593Z,104.80
2019-02-05T02:20:55.685Z,105.63
2019-02-05T02:23:26.750Z,104.57
2019-02-05T02:25:57.246Z,103.80
2019-02-05T02:28:27.676Z,105.43
2019-02-05T02:30:58.630Z,104.73
2019-02-05T02:33:29.417Z,104.97
2019-02-05T02:35:59.938Z,104.80
2019-02-05T02:38:30.446Z,103.83
2019-02-05T02:41:01.228Z,105.03
2019-02-05T02:43:31.689Z,105.93
2019-02-05T02:46:02.160Z,106.17
2019-02-05T02:48:32.663Z,105.50
2019-02-05T02:51:03.158Z,104.57
2019-02-05T02:53:33.801Z,105.70
2019-02-05T02:56:04.746Z,103.77
2019-02-05T02:58:35.580Z,104.90
2019-02-05T03:01:06.134Z,106.23
2019-02-05T03:03:36.986Z,103.50
2019-02-05T03:06:07.492Z,103.63
2019-02-05T03:08:38.020Z,105.80
2019-02-05T03:11:08.674Z,105.37
2019-02-05T03:13:40.047Z,105.07
2019-02-05T03:16:10.840Z,105.30
2019-02-05T03:18:41.361Z,104.70
2019-02-05T03:21:11.947Z,104.90
2019-02-05T03:23:42.467Z,104.60
2019-02-05T03:26:13.000Z,104.03
2019-02-05T03:28:43.808Z,103.97
2019-02-05T03:31:14.329Z,103.73
2019-02-05T03:33:46.591Z,103.27
2019-02-05T03:36:17.549Z,103.97
2019-02-05T03:38:48.151Z,104.17
2019-02-05T03:41:18.638Z,102.80
2019-02-05T03:43:49.553Z,104.10
2019-02-05T03:46:20.736Z,101.80
2019-02-05T03:48:51.821Z,105.83
2019-02-05T03:51:33.498Z,104.83
2019-02-05T03:54:47.834Z,103.67
2019-02-05T03:58:00.016Z,102.20
2019-02-05T04:01:07.405Z,102.63
2019-02-05T04:03:56.550Z,103.87
2019-02-05T04:06:58.169Z,102.93
2019-02-05T04:10:14.153Z,103.07
2019-02-05T04:13:10.692Z,103.87
2019-02-05T04:16:05.541Z,103.70
2019-02-05T04:19:21.676Z,103.80
2019-02-05T04:22:49.446Z,104.63
2019-02-05T04:26:00.693Z,103.17
2019-02-05T04:29:15.588Z,104.43
2019-02-05T04:32:21.034Z,103.20
2019-02-05T04:35:19.188Z,102.43
2019-02-05T04:38:43.097Z,102.87
2019-02-05T04:41:38.589Z,101.70
2019-02-05T04:44:38.912Z,103.67
2019-02-05T04:47:27.203Z,103.77
2019-02-05T04:50:31.173Z,103.57
2019-02-05T04:53:33.960Z,102.87
2019-02-05T04:56:50.498Z,104.73
2019-02-05T05:00:10.069Z,102.60
2019-02-05T05:03:24.838Z,103.50
2019-02-05T05:06:18.933Z,103.13
2019-02-05T05:09:23.581Z,101.83
2019-02-05T05:11:54.245Z,102.97
2019-02-05T05:14:24.982Z,102.73
2019-02-05T05:16:55.466Z,102.43
2019-02-05T05:19:25.964Z,103.00
2019-02-05T05:21:56.839Z,102.07
2019-02-05T05:24:27.852Z,102.10
2019-02-05T05:26:58.693Z,103.40
2019-02-05T05:29:33.011Z,102.23
2019-02-05T05:32:02.108Z,102.13
2019-02-05T05:34:32.660Z,102.93
2019-02-05T05:37:01.504Z,102.07
2019-02-05T05:39:31.993Z,102.23
2019-02-05T05:42:02.475Z,102.23
2019-02-05T05:44:32.906Z,101.90
2019-02-05T05:47:03.769Z,101.70
2019-02-05T05:49:35.530Z,102.87
2019-02-05T05:52:07.393Z,102.40
2019-02-05T05:54:38.006Z,103.23
2019-02-05T05:57:08.452Z,103.70
2019-02-05T05:59:38.953Z,101.30
2019-02-05T06:02:09.519Z,102.73
2019-02-05T06:04:40.049Z,103.27
2019-02-05T06:07:10.647Z,102.93
2019-02-05T06:09:41.277Z,102.40
2019-02-05T06:12:11.730Z,102.00
2019-02-05T06:14:42.394Z,102.17
2019-02-05T06:17:12.847Z,101.27
2019-02-05T06:19:43.265Z,103.53
2019-02-05T06:22:13.773Z,102.73
2019-02-05T06:24:44.397Z,104.30
2019-02-05T06:27:15.045Z,105.17
2019-02-05T06:29:45.795Z,109.53
2019-02-05T06:32:16.287Z,107.63
2019-02-05T06:34:46.757Z,108.27
2019-02-05T06:37:17.304Z,104.17
2019-02-05T06:39:48.022Z,107.10
2019-02-05T06:42:18.593Z,103.70
2019-02-05T06:44:49.463Z,103.60
2019-02-05T06:47:20.137Z,105.07
2019-02-05T06:49:50.704Z,104.67
2019-02-05T06:52:21.672Z,102.00
2019-02-05T06:54:52.419Z,102.37
2019-02-05T06:57:22.977Z,102.77
2019-02-05T06:59:53.993Z,104.63
2019-02-05T07:02:24.755Z,103.20
2019-02-05T07:04:55.312Z,103.83
2019-02-05T07:07:25.804Z,104.93
2019-02-05T07:09:56.452Z,103.90
2019-02-05T07:12:28.553Z,103.57
2019-02-05T07:14:59.061Z,104.80
2019-02-05T07:17:29.545Z,102.13
2019-02-05T07:20:00.123Z,103.77
2019-02-05T07:22:30.881Z,103.23
2019-02-05T07:25:01.338Z,104.60
2019-02-05T07:27:32.462Z,103.70
2019-02-05T07:30:02.945Z,103.17
2019-02-05T07:32:33.760Z,103.43
2019-02-05T07:35:04.729Z,101.47
2019-02-05T07:37:35.241Z,102.37
2019-02-05T07:40:08.528Z,101.57
2019-02-05T07:42:39.257Z,103.00
2019-02-05T07:45:13.056Z,102.13
2019-02-05T07:47:43.681Z,103.50
2019-02-05T07:50:16.798Z,102.33
2019-02-05T07:52:47.371Z,101.53
2019-02-05T07:55:17.917Z,102.33
2019-02-05T07:57:48.832Z,103.17
2019-02-05T08:00:24.622Z,100.83
2019-02-05T08:02:55.638Z,100.50
2019-02-05T08:05:32.937Z,99.87
2019-02-05T08:08:03.731Z,101.63
2019-02-05T08:10:34.656Z,100.63
2019-02-05T08:13:06.021Z,101.23
2019-02-05T08:15:36.628Z,100.93
2019-02-05T08:18:07.573Z,100.30
2019-02-05T08:20:38.517Z,99.57
2019-02-05T08:23:09.158Z,99.63
2019-02-05T08:25:39.872Z,100.47
2019-02-05T08:28:10.997Z,99.67
2019-02-05T08:30:44.518Z,99.97
2019-02-05T08:33:20.294Z,100.50
2019-02-05T08:35:50.948Z,98.43
2019-02-05T08:38:21.903Z,99.30
2019-02-05T08:40:53.169Z,99.23
2019-02-05T08:43:23.770Z,99.80
2019-02-05T08:45:56.822Z,99.00
2019-02-05T08:48:26.993Z,99.20
2019-02-05T08:50:58.543Z,101.33
2019-02-05T08:53:29.073Z,99.70
2019-02-05T08:55:59.649Z,101.87
2019-02-05T08:58:31.365Z,99.03
2019-02-05T09:01:02.007Z,99.23
2019-02-05T09:03:33.524Z,99.23
2019-02-05T09:06:07.067Z,100.07
2019-02-05T09:08:37.928Z,98.37
2019-02-05T09:11:08.586Z,98.97
2019-02-05T09:13:40.224Z,100.10
2019-02-05T09:16:10.958Z,100.27
2019-02-05T09:18:41.513Z,99.70
2019-02-05T09:21:13.340Z,99.03
2019-02-05T09:23:43.878Z,99.37
2019-02-05T09:26:14.500Z,97.60
2019-02-05T09:28:46.129Z,99.50
2019-02-05T09:31:16.661Z,100.20
2019-02-05T09:33:48.640Z,99.47
2019-02-05T09:36:19.521Z,100.60
2019-02-05T09:38:50.054Z,96.97
2019-02-05T09:41:21.293Z,98.40
2019-02-05T09:43:51.904Z,99.27
2019-02-05T09:46:22.393Z,98.00
2019-02-05T09:48:52.951Z,99.70
2019-02-05T09:51:23.717Z,99.60
2019-02-05T09:53:54.623Z,100.33
2019-02-05T09:56:25.198Z,99.07
2019-02-05T09:58:55.684Z,100.17
2019-02-05T10:01:26.249Z,100.57
2019-02-05T10:03:56.710Z,101.57
2019-02-05T10:06:29.041Z,99.47
2019-02-05T10:08:59.509Z,103.63
2019-02-05T10:11:30.177Z,100.43
2019-02-05T10:14:00.660Z,102.33
2019-02-05T10:16:31.641Z,101.33
2019-02-05T10:19:02.279Z,102.20
2019-02-05T10:21:33.249Z,101.90
2019-02-05T10:24:03.901Z,100.73
2019-02-05T10:26:34.500Z,99.83
2019-02-05T10:29:05.126Z,100.57
2019-02-05T10:31:35.726Z,100.70
2019-02-05T10:34:06.416Z,99.60
2019-02-05T10:36:36.952Z,100.97
2019-02-05T10:39:10.207Z,100.33
2019-02-05T10:41:41.378Z,101.53
2019-02-05T10:44:12.176Z,100.53
2019-02-05T10:46:42.645Z,101.90
2019-02-05T10:49:13.768Z,100.83
2019-02-05T10:51:44.253Z,100.57
2019-02-05T10:54:14.864Z,100.43
2019-02-05T10:56:45.356Z,100.67
2019-02-05T10:59:15.910Z,100.50
2019-02-05T11:01:46.553Z,101.70
2019-02-05T11:04:18.870Z,102.47
2019-02-05T11:06:49.420Z,102.00
2019-02-05T11:09:20.233Z,101.00
2019-02-05T11:11:50.797Z,100.37
2019-02-05T11:14:21.385Z,102.07
2019-02-05T11:16:51.920Z,101.03
2019-02-05T11:19:22.791Z,100.93
2019-02-05T11:21:53.541Z,101.10
2019-02-05T11:24:24.104Z,102.20
2019-02-05T11:26:54.690Z,102.50
2019-02-05T11:29:28.693Z,102.27
2019-02-05T11:32:00.801Z,101.10
2019-02-05T11:34:31.374Z,101.40
2019-02-05T11:37:01.988Z,103.63
2019-02-05T11:39:32.523Z,102.20
2019-02-05T11:42:02.980Z,100.30
2019-02-05T11:44:33.624Z,99.70
2019-02-05T11:47:04.391Z,99.60
2019-02-05T11:49:34.941Z,99.97
2019-02-05T11:52:05.457Z,99.80
2019-02-05T11:54:35.904Z,98.50
2019-02-05T11:57:06.834Z,101.80
2019-02-05T11:59:37.325Z,101.83
2019-02-05T12:02:08.130Z,99.20
2019-02-05T12:04:38.696Z,98.20
2019-02-05T12:07:09.286Z,100.10
2019-02-05T12:09:39.877Z,99.07
2019-02-05T12:12:10.734Z,100.50
2019-02-05T12:14:41.225Z,99.70
2019-02-05T12:17:12.133Z,97.60
2019-02-05T12:19:42.585Z,97.20
2019-02-05T12:22:13.127Z,98.70
2019-02-05T12:24:43.929Z,98.20
2019-02-05T12:27:14.541Z,101.90
2019-02-05T12:29:45.048Z,99.00
2019-02-05T12:32:15.689Z,98.83
2019-02-05T12:34:46.253Z,101.10
2019-02-05T12:37:17.282Z,99.77
2019-02-05T12:39:47.869Z,100.97
2019-02-05T12:42:18.352Z,99.57
2019-02-05T12:44:48.931Z,101.63
2019-02-05T12:47:21.307Z,100.03
2019-02-05T12:49:51.752Z,101.57
2019-02-05T12:52:22.496Z,100.40
2019-02-05T12:54:52.987Z,100.77
2019-02-05T12:57:23.506Z,100.13
2019-02-05T12:59:55.729Z,100.07
2019-02-05T13:02:26.373Z,101.67
2019-02-05T13:04:56.817Z,101.97
2019-02-05T13:07:27.338Z,101.03
2019-02-05T13:09:57.951Z,101.47
2019-02-05T13:12:28.429Z,100.10
2019-02-05T13:14:59.212Z,100.33
2019-02-05T13:17:29.879Z,101.97
2019-02-05T13:20:00.505Z,100.10
2019-02-05T13:22:31.093Z,100.67
2019-02-05T13:25:01.778Z,105.00
2019-02-05T13:27:32.695Z,101.47
2019-02-05T13:30:03.477Z,100.70
2019-02-05T13:32:34.465Z,101.40
2019-02-05T13:35:06.208Z,102.17
2019-02-05T13:37:37.864Z,102.77
2019-02-05T13:40:10.327Z,100.13
2019-02-05T13:42:40.773Z,102.80
2019-02-05T13:45:11.716Z,101.40
2019-02-05T13:47:42.429Z,103.33
2019-02-05T13:50:16.549Z,104.43
2019-02-05T13:52:47.594Z,101.73
2019-02-05T13:55:23.321Z,102.63
2019-02-05T13:57:53.856Z,102.00
2019-02-05T14:00:44.893Z,104.50
2019-02-05T14:03:16.008Z,101.43
2019-02-05T14:05:46.705Z,101.77
2019-02-05T14:08:17.309Z,103.10
2019-02-05T14:10:48.684Z,103.00
2019-02-05T14:13:19.366Z,103.00
2019-02-05T14:15:52.393Z,102.80
2019-02-05T14:18:24.143Z,105.40
2019-02-05T14:20:54.971Z,103.30
2019-02-05T14:23:27.922Z,104.07
2019-02-05T14:25:59.777Z,103.13
2019-02-05T14:28:30.732Z,103.60
2019-02-05T14:31:01.190Z,103.90
2019-02-05T14:33:32.358Z,102.03
2019-02-05T14:36:02.913Z,103.23
2019-02-05T14:38:33.521Z,103.13
2019-02-05T14:41:04.556Z,104.00
2019-02-05T14:43:34.991Z,103.00
2019-02-05T14:46:06.184Z,103.87
2019-02-05T14:48:36.729Z,104.47
2019-02-05T14:51:07.280Z,103.07
2019-02-05T14:53:37.954Z,103.50
2019-02-05T14:56:08.873Z,103.07
2019-02-05T14:58:39.347Z,104.50
2019-02-05T15:01:09.980Z,105.07
2019-02-05T15:03:41.942Z,103.80
2019-02-05T15:06:13.937Z,103.23
2019-02-05T15:08:45.557Z,105.53
2019-02-05T15:11:16.162Z,103.63
2019-02-05T15:13:46.691Z,103.67
2019-02-05T15:16:17.264Z,105.90
2019-02-05T15:18:47.832Z,104.80
2019-02-05T15:21:18.678Z,105.57
2019-02-05T15:23:49.340Z,104.37
2019-02-05T15:26:20.146Z,105.43
2019-02-05T15:28:53.844Z,106.70
2019-02-05T15:31:26.813Z,107.40
2019-02-05T15:34:02.512Z,104.40
2019-02-05T15:36:35.302Z,107.10
2019-02-05T15:39:13.919Z,105.43
2019-02-05T15:41:44.604Z,104.50
2019-02-05T15:44:15.621Z,103.47
2019-02-05T15:46:46.139Z,104.57
2019-02-05T15:49:16.964Z,103.63
2019-02-05T15:51:47.603Z,105.90
2019-02-05T15:54:18.238Z,105.77
2019-02-05T15:56:49.314Z,105.37
2019-02-05T15:59:19.773Z,105.30
2019-02-05T16:01:50.293Z,106.57
2019-02-05T16:04:20.837Z,105.40
2019-02-05T16:06:51.435Z,106.80
2019-02-05T16:09:21.964Z,105.33
2019-02-05T16:11:52.882Z,107.13
2019-02-05T16:14:23.686Z,106.10
2019-02-05T16:16:54.312Z,106.70
2019-02-05T16:19:24.794Z,106.43
2019-02-05T16:21:56.928Z,108.17
2019-02-05T16:24:27.760Z,106.90
2019-02-05T16:26:58.262Z,106.70
2019-02-05T16:29:28.684Z,106.93
2019-02-05T16:32:00.113Z,107.37
2019-02-05T16:34:30.624Z,109.17
2019-02-05T16:37:01.249Z,107.37
2019-02-05T16:39:31.753Z,109.63
2019-02-05T16:42:02.314Z,107.80
2019-02-05T16:44:33.077Z,109.53
2019-02-05T16:47:03.578Z,107.93
2019-02-05T16:49:34.081Z,108.23
2019-02-05T16:52:04.912Z,108.63
2019-02-05T16:54:35.445Z,107.10
2019-02-05T16:57:05.993Z,108.00
2019-02-05T16:59:36.475Z,108.17
2019-02-05T17:02:07.233Z,110.40
2019-02-05T17:04:37.775Z,108.73
2019-02-05T17:07:08.442Z,109.97
2019-02-05T17:09:38.922Z,107.77
2019-02-05T17:12:09.457Z,109.60
2019-02-05T17:14:40.987Z,109.33
2019-02-05T17:17:11.481Z,108.77
2019-02-05T17:19:42.252Z,110.17
2019-02-05T17:22:15.389Z,110.00
2019-02-05T17:24:46.128Z,108.47
2019-02-05T17:27:16.949Z,110.00
2019-02-05T17:29:50.143Z,110.13
2019-02-05T17:32:19.784Z,109.30
2019-02-05T17:34:50.461Z,110.53
2019-02-05T17:37:21.169Z,109.33
2019-02-05T17:39:51.758Z,109.70
2019-02-05T17:42:22.300Z,109.80
2019-02-05T17:44:53.013Z,110.77
2019-02-05T17:47:23.669Z,109.83
2019-02-05T17:49:54.262Z,109.43
2019-02-05T17:52:25.255Z,110.27
2019-02-05T17:54:55.777Z,109.83
2019-02-05T17:57:29.387Z,111.27
2019-02-05T18:00:00.279Z,112.07
2019-02-05T18:02:30.985Z,111.37
2019-02-05T18:05:01.649Z,110.60
2019-02-05T18:07:33.430Z,110.60
2019-02-05T18:10:04.197Z,110.83
2019-02-05T18:12:38.023Z,111.07
2019-02-05T18:15:12.577Z,111.50
2019-02-05T18:17:43.122Z,110.63
2019-02-05T18:20:13.896Z,109.47
2019-02-05T18:22:44.493Z,112.60
2019-02-05T18:25:17.571Z,110.47
2019-02-05T18:27:48.800Z,111.67
2019-02-05T18:30:25.232Z,111.20
2019-02-05T18:33:03.667Z,112.00
2019-02-05T18:35:29.029Z,110.90
2019-02-05T18:38:02.888Z,110.37
2019-02-05T18:40:33.646Z,111.57
2019-02-05T18:43:04.335Z,111.73
2019-02-05T18:45:34.969Z,111.93
2019-02-05T18:48:06.030Z,112.33
2019-02-05T18:50:36.593Z,112.63
2019-02-05T18:53:07.126Z,111.53
2019-02-05T18:55:37.859Z,111.53
2019-02-05T18:58:09.875Z,110.30
2019-02-05T19:00:43.914Z,109.40
2019-02-05T19:03:16.197Z,110.93
2019-02-05T19:05:46.964Z,112.07
2019-02-05T19:08:17.557Z,112.03
2019-02-05T19:10:48.134Z,111.07
2019-02-05T19:13:18.757Z,111.80
2019-02-05T19:15:49.497Z,113.00
2019-02-05T19:18:20.103Z,112.43
2019-02-05T19:20:50.848Z,110.97
2019-02-05T19:23:21.354Z,111.23
2019-02-05T19:25:57.774Z,112.40
2019-02-05T19:28:30.862Z,113.67
2019-02-05T19:31:09.262Z,111.73
2019-02-05T19:33:40.033Z,111.10
2019-02-05T19:36:12.322Z,111.37
2019-02-05T19:38:43.186Z,112.80
2019-02-05T19:41:13.976Z,113.23
2019-02-05T19:43:44.507Z,111.20
2019-02-05T19:46:33.011Z,111.10
2019-02-05T19:51:49.008Z,111.57
2019-02-05T19:54:20.955Z,110.43
2019-02-05T19:56:51.496Z,111.80
2019-02-05T19:59:22.529Z,112.40
2019-02-05T20:01:53.137Z,111.00
2019-02-05T20:04:24.141Z,111.97
2019-02-05T20:06:55.120Z,111.40
2019-02-05T20:09:25.729Z,112.00
2019-02-05T20:11:56.605Z,110.40
2019-02-05T20:14:27.556Z,113.23
2019-02-05T20:16:58.273Z,110.77
2019-02-05T20:19:28.892Z,112.20
2019-02-05T20:21:59.632Z,109.77
2019-02-05T20:24:31.812Z,111.33
2019-02-05T20:27:02.420Z,112.13
2019-02-05T20:29:33.285Z,112.03
2019-02-05T20:32:04.030Z,112.07
2019-02-05T20:34:35.657Z,112.90
2019-02-05T20:37:06.836Z,112.37
2019-02-05T20:39:37.479Z,114.17
2019-02-05T20:42:08.437Z,112.30
2019-02-05T20:44:39.045Z,110.70
2019-02-05T20:47:09.902Z,111.70
2019-02-05T20:49:41.605Z,112.03
2019-02-05T20:52:12.423Z,113.33
2019-02-05T20:54:43.436Z,114.13
2019-02-05T20:57:14.285Z,112.70
2019-02-05T20:59:45.121Z,115.93
2019-02-05T21:02:16.049Z,112.70
2019-02-05T21:04:48.676Z,113.27
2019-02-05T21:07:19.359Z,112.57
2019-02-05T21:09:50.111Z,114.20
2019-02-05T21:12:20.672Z,113.00
2019-02-05T21:14:51.238Z,114.90
2019-02-05T21:17:21.890Z,112.23
2019-02-05T21:19:52.416Z,113.80
2019-02-05T21:23:03.762Z,112.37
2019-02-05T21:25:35.416Z,112.63
2019-02-05T21:28:06.252Z,113.73
2019-02-05T21:30:37.413Z,113.60
2019-02-05T21:33:07.940Z,111.70
2019-02-05T21:35:38.514Z,113.50
2019-02-05T21:38:09.376Z,114.63
2019-02-05T21:40:40.091Z,115.40
2019-02-05T21:43:10.662Z,116.67
2019-02-05T21:45:41.294Z,114.33
2019-02-05T21:48:12.013Z,113.03
2019-02-05T21:50:42.666Z,113.47
2019-02-05T21:53:13.528Z,113.30
2019-02-05T21:55:44.067Z,114.07
2019-02-05T21:58:14.710Z,115.20
2019-02-05T22:00:45.282Z,115.37
2019-02-05T22:03:15.928Z,114.43
2019-02-05T22:05:46.805Z,113.90
2019-02-05T22:08:17.533Z,114.87
2019-02-05T22:10:47.979Z,115.13
2019-02-05T22:13:18.513Z,114.53
2019-02-05T22:15:49.114Z,114.50
2019-02-05T22:18:19.688Z,115.40
2019-02-05T22:20:51.377Z,115.57
2019-02-05T22:23:22.304Z,114.83
2019-02-05T22:25:52.861Z,114.90
2019-02-05T22:28:23.424Z,114.87
2019-02-05T22:30:54.425Z,114.13
2019-02-05T22:33:27.942Z,113.83
2019-02-05T22:35:57.546Z,113.80
2019-02-05T22:38:28.072Z,114.60
2019-02-05T22:40:58.559Z,114.97
2019-02-05T22:43:29.017Z,114.77
2019-02-05T22:45:59.481Z,114.60
2019-02-05T22:48:30.511Z,113.93
2019-02-05T22:51:01.036Z,114.10
2019-02-05T22:53:31.796Z,114.33
2019-02-05T22:56:02.289Z,112.97
2019-02-05T22:58:33.089Z,112.90
2019-02-05T23:01:46.756Z,114.57
2019-02-05T23:05:02.430Z,112.67
2019-02-05T23:07:32.982Z,112.73
2019-02-05T23:11:03.435Z,114.93
2019-02-05T23:13:30.880Z,114.07
2019-02-05T23:16:01.513Z,114.73
2019-02-05T23:18:32.140Z,114.83
2019-02-05T23:21:02.629Z,114.30
2019-02-05T23:23:33.241Z,114.07
2019-02-05T23:26:04.043Z,115.47
2019-02-05T23:28:35.048Z,116.03
2019-02-05T23:31:05.922Z,117.23
2019-02-05T23:33:36.726Z,115.70
2019-02-05T23:36:07.247Z,116.37
2019-02-05T23:38:37.792Z,114.90
2019-02-05T23:41:08.517Z,114.47
2019-02-05T23:43:40.693Z,116.43
2019-02-05T23:46:11.219Z,115.50
2019-02-05T23:48:41.974Z,116.03
2019-02-05T23:51:12.388Z,116.10
2019-02-05T23:53:43.052Z,115.10
2019-02-05T23:56:25.256Z,114.67
2019-02-05T23:58:46.812Z,114.67
